sensor_id;sensor_type;location;lat;lon;timestamp;P1;durP1;ratioP1;P2;durP2;ratioP2
11453;SDS011;5783;55.174;61.310;2023-04-06T00:01:17;1.40;;;1.30;;
11453;SDS011;5783;55.174;61.310;2023-04-06T00:03:46;1.70;;;1.60;;
11453;SDS011;5783;55.174;61.310;2023-04-06T00:06:15;1.67;;;1.40;;
11453;SDS011;5783;55.174;61.310;2023-04-06T00:08:44;1.57;;;1.33;;
11453;SDS011;5783;55.174;61.310;2023-04-06T00:11:13;2.43;;;1.60;;
11453;SDS011;5783;55.174;61.310;2023-04-06T00:13:43;2.30;;;1.50;;
11453;SDS011;5783;55.174;61.310;2023-04-06T00:16:13;1.57;;;1.37;;
11453;SDS011;5783;55.174;61.310;2023-04-06T00:18:42;3.50;;;1.47;;
11453;SDS011;5783;55.174;61.310;2023-04-06T00:21:12;2.23;;;1.53;;
11453;SDS011;5783;55.174;61.310;2023-04-06T00:23:41;1.77;;;1.40;;
11453;SDS011;5783;55.174;61.310;2023-04-06T00:26:11;2.87;;;1.67;;
11453;SDS011;5783;55.174;61.310;2023-04-06T00:28:40;1.37;;;1.27;;
11453;SDS011;5783;55.174;61.310;2023-04-06T00:31:09;3.70;;;1.53;;
11453;SDS011;5783;55.174;61.310;2023-04-06T00:33:38;2.70;;;1.50;;
11453;SDS011;5783;55.174;61.310;2023-04-06T00:36:07;2.73;;;1.90;;
11453;SDS011;5783;55.174;61.310;2023-04-06T00:38:36;2.67;;;1.50;;
11453;SDS011;5783;55.174;61.310;2023-04-06T00:41:05;2.73;;;1.67;;
11453;SDS011;5783;55.174;61.310;2023-04-06T00:43:35;1.67;;;1.57;;
11453;SDS011;5783;55.174;61.310;2023-04-06T00:46:04;1.97;;;1.50;;
11453;SDS011;5783;55.174;61.310;2023-04-06T00:48:33;4.03;;;1.57;;
11453;SDS011;5783;55.174;61.310;2023-04-06T00:51:02;3.60;;;1.60;;
11453;SDS011;5783;55.174;61.310;2023-04-06T00:53:31;2.10;;;1.67;;
11453;SDS011;5783;55.174;61.310;2023-04-06T00:56:00;2.00;;;1.57;;
11453;SDS011;5783;55.174;61.310;2023-04-06T00:58:30;3.13;;;1.77;;
11453;SDS011;5783;55.174;61.310;2023-04-06T01:00:59;3.83;;;1.60;;
11453;SDS011;5783;55.174;61.310;2023-04-06T01:03:28;2.90;;;1.90;;
11453;SDS011;5783;55.174;61.310;2023-04-06T01:05:57;2.93;;;1.90;;
11453;SDS011;5783;55.174;61.310;2023-04-06T01:08:26;3.10;;;2.10;;
11453;SDS011;5783;55.174;61.310;2023-04-06T01:10:55;1.87;;;1.50;;
11453;SDS011;5783;55.174;61.310;2023-04-06T01:13:28;4.60;;;2.00;;
11453;SDS011;5783;55.174;61.310;2023-04-06T01:15:57;3.43;;;1.90;;
11453;SDS011;5783;55.174;61.310;2023-04-06T01:18:26;2.97;;;1.80;;
11453;SDS011;5783;55.174;61.310;2023-04-06T01:20:56;4.07;;;1.80;;
11453;SDS011;5783;55.174;61.310;2023-04-06T01:23:25;2.10;;;1.60;;
11453;SDS011;5783;55.174;61.310;2023-04-06T01:25:54;2.73;;;1.90;;
11453;SDS011;5783;55.174;61.310;2023-04-06T01:28:23;2.73;;;2.00;;
11453;SDS011;5783;55.174;61.310;2023-04-06T01:30:52;2.37;;;1.80;;
11453;SDS011;5783;55.174;61.310;2023-04-06T01:33:22;2.73;;;1.70;;
11453;SDS011;5783;55.174;61.310;2023-04-06T01:35:51;3.10;;;1.90;;
11453;SDS011;5783;55.174;61.310;2023-04-06T01:38:20;3.07;;;1.70;;
11453;SDS011;5783;55.174;61.310;2023-04-06T01:40:50;3.47;;;1.93;;
11453;SDS011;5783;55.174;61.310;2023-04-06T01:43:19;4.07;;;1.90;;
11453;SDS011;5783;55.174;61.310;2023-04-06T01:45:48;2.10;;;1.53;;
11453;SDS011;5783;55.174;61.310;2023-04-06T01:48:18;2.90;;;1.87;;
11453;SDS011;5783;55.174;61.310;2023-04-06T01:50:47;2.30;;;1.83;;
11453;SDS011;5783;55.174;61.310;2023-04-06T01:53:16;2.00;;;1.80;;
11453;SDS011;5783;55.174;61.310;2023-04-06T01:55:46;5.53;;;1.77;;
11453;SDS011;5783;55.174;61.310;2023-04-06T01:58:15;2.33;;;1.83;;
11453;SDS011;5783;55.174;61.310;2023-04-06T02:00:44;2.87;;;1.90;;
11453;SDS011;5783;55.174;61.310;2023-04-06T02:03:13;3.67;;;2.00;;
11453;SDS011;5783;55.174;61.310;2023-04-06T02:05:42;2.60;;;1.80;;
11453;SDS011;5783;55.174;61.310;2023-04-06T02:08:11;3.20;;;1.70;;
11453;SDS011;5783;55.174;61.310;2023-04-06T02:10:40;2.60;;;1.93;;
11453;SDS011;5783;55.174;61.310;2023-04-06T02:13:09;3.33;;;1.93;;
11453;SDS011;5783;55.174;61.310;2023-04-06T02:15:38;3.53;;;1.80;;
11453;SDS011;5783;55.174;61.310;2023-04-06T02:18:08;3.97;;;2.17;;
11453;SDS011;5783;55.174;61.310;2023-04-06T02:20:37;3.33;;;2.20;;
11453;SDS011;5783;55.174;61.310;2023-04-06T02:23:06;3.63;;;2.00;;
11453;SDS011;5783;55.174;61.310;2023-04-06T02:25:36;4.20;;;2.33;;
11453;SDS011;5783;55.174;61.310;2023-04-06T02:28:05;2.50;;;2.07;;
11453;SDS011;5783;55.174;61.310;2023-04-06T02:30:34;2.57;;;2.20;;
11453;SDS011;5783;55.174;61.310;2023-04-06T02:33:03;4.97;;;2.30;;
11453;SDS011;5783;55.174;61.310;2023-04-06T02:35:32;4.33;;;2.60;;
11453;SDS011;5783;55.174;61.310;2023-04-06T02:38:01;5.23;;;2.43;;
11453;SDS011;5783;55.174;61.310;2023-04-06T02:40:30;4.90;;;2.43;;
11453;SDS011;5783;55.174;61.310;2023-04-06T02:42:59;3.47;;;2.23;;
11453;SDS011;5783;55.174;61.310;2023-04-06T02:45:28;4.63;;;2.43;;
11453;SDS011;5783;55.174;61.310;2023-04-06T02:47:57;2.93;;;2.50;;
11453;SDS011;5783;55.174;61.310;2023-04-06T02:50:27;7.20;;;2.57;;
11453;SDS011;5783;55.174;61.310;2023-04-06T02:52:56;7.13;;;2.50;;
11453;SDS011;5783;55.174;61.310;2023-04-06T02:55:25;5.13;;;2.60;;
11453;SDS011;5783;55.174;61.310;2023-04-06T02:57:54;3.80;;;2.50;;
11453;SDS011;5783;55.174;61.310;2023-04-06T03:00:23;4.33;;;2.30;;
11453;SDS011;5783;55.174;61.310;2023-04-06T03:02:52;4.50;;;2.27;;
11453;SDS011;5783;55.174;61.310;2023-04-06T03:05:21;3.73;;;2.60;;
11453;SDS011;5783;55.174;61.310;2023-04-06T03:07:50;4.37;;;2.50;;
11453;SDS011;5783;55.174;61.310;2023-04-06T03:10:19;3.77;;;2.70;;
11453;SDS011;5783;55.174;61.310;2023-04-06T03:12:48;4.40;;;2.90;;
11453;SDS011;5783;55.174;61.310;2023-04-06T03:15:17;3.17;;;2.23;;
11453;SDS011;5783;55.174;61.310;2023-04-06T03:17:47;6.17;;;3.13;;
11453;SDS011;5783;55.174;61.310;2023-04-06T03:20:16;7.03;;;3.07;;
11453;SDS011;5783;55.174;61.310;2023-04-06T03:22:45;5.83;;;2.60;;
11453;SDS011;5783;55.174;61.310;2023-04-06T03:25:14;3.87;;;2.53;;
11453;SDS011;5783;55.174;61.310;2023-04-06T03:27:43;5.03;;;2.60;;
11453;SDS011;5783;55.174;61.310;2023-04-06T03:30:12;5.50;;;3.07;;
11453;SDS011;5783;55.174;61.310;2023-04-06T03:32:43;6.13;;;3.10;;
11453;SDS011;5783;55.174;61.310;2023-04-06T03:35:12;6.33;;;3.20;;
11453;SDS011;5783;55.174;61.310;2023-04-06T03:37:42;5.10;;;3.00;;
11453;SDS011;5783;55.174;61.310;2023-04-06T03:40:11;4.73;;;2.63;;
11453;SDS011;5783;55.174;61.310;2023-04-06T03:42:41;4.33;;;2.90;;
11453;SDS011;5783;55.174;61.310;2023-04-06T03:45:10;5.70;;;3.00;;
11453;SDS011;5783;55.174;61.310;2023-04-06T03:47:39;5.80;;;3.13;;
11453;SDS011;5783;55.174;61.310;2023-04-06T03:50:09;4.33;;;2.80;;
11453;SDS011;5783;55.174;61.310;2023-04-06T03:52:38;7.03;;;3.27;;
11453;SDS011;5783;55.174;61.310;2023-04-06T03:55:07;8.63;;;3.00;;
11453;SDS011;5783;55.174;61.310;2023-04-06T03:57:37;6.73;;;3.10;;
11453;SDS011;5783;55.174;61.310;2023-04-06T04:00:06;7.10;;;3.37;;
11453;SDS011;5783;55.174;61.310;2023-04-06T04:02:36;7.00;;;2.93;;
11453;SDS011;5783;55.174;61.310;2023-04-06T04:05:05;7.90;;;3.30;;
11453;SDS011;5783;55.174;61.310;2023-04-06T04:07:34;6.77;;;3.50;;
11453;SDS011;5783;55.174;61.310;2023-04-06T04:10:04;6.30;;;3.07;;
11453;SDS011;5783;55.174;61.310;2023-04-06T04:12:33;4.73;;;3.17;;
11453;SDS011;5783;55.174;61.310;2023-04-06T04:15:02;10.33;;;3.70;;
11453;SDS011;5783;55.174;61.310;2023-04-06T04:17:32;4.90;;;2.77;;
11453;SDS011;5783;55.174;61.310;2023-04-06T04:20:01;6.30;;;3.10;;
11453;SDS011;5783;55.174;61.310;2023-04-06T04:22:30;5.77;;;3.20;;
11453;SDS011;5783;55.174;61.310;2023-04-06T04:24:59;6.17;;;3.37;;
11453;SDS011;5783;55.174;61.310;2023-04-06T04:27:29;5.53;;;3.23;;
11453;SDS011;5783;55.174;61.310;2023-04-06T04:29:59;4.50;;;3.30;;
11453;SDS011;5783;55.174;61.310;2023-04-06T04:32:29;7.13;;;3.60;;
11453;SDS011;5783;55.174;61.310;2023-04-06T04:34:58;7.50;;;3.50;;
11453;SDS011;5783;55.174;61.310;2023-04-06T04:37:27;8.73;;;3.70;;
11453;SDS011;5783;55.174;61.310;2023-04-06T04:39:57;6.50;;;3.70;;
11453;SDS011;5783;55.174;61.310;2023-04-06T04:45:16;8.50;;;3.57;;
11453;SDS011;5783;55.174;61.310;2023-04-06T04:47:45;6.37;;;3.30;;
11453;SDS011;5783;55.174;61.310;2023-04-06T04:50:14;5.63;;;3.50;;
11453;SDS011;5783;55.174;61.310;2023-04-06T04:52:44;4.80;;;3.67;;
11453;SDS011;5783;55.174;61.310;2023-04-06T04:55:13;11.33;;;4.13;;
11453;SDS011;5783;55.174;61.310;2023-04-06T04:57:43;7.27;;;3.60;;
11453;SDS011;5783;55.174;61.310;2023-04-06T05:00:12;8.37;;;3.60;;
11453;SDS011;5783;55.174;61.310;2023-04-06T05:02:42;7.87;;;3.87;;
11453;SDS011;5783;55.174;61.310;2023-04-06T05:05:11;11.57;;;4.30;;
11453;SDS011;5783;55.174;61.310;2023-04-06T05:07:40;10.47;;;4.83;;
11453;SDS011;5783;55.174;61.310;2023-04-06T05:10:09;15.77;;;4.13;;
11453;SDS011;5783;55.174;61.310;2023-04-06T05:12:40;15.00;;;4.77;;
11453;SDS011;5783;55.174;61.310;2023-04-06T05:15:09;10.87;;;4.13;;
11453;SDS011;5783;55.174;61.310;2023-04-06T05:17:38;13.63;;;4.40;;
11453;SDS011;5783;55.174;61.310;2023-04-06T05:20:08;22.33;;;5.00;;
11453;SDS011;5783;55.174;61.310;2023-04-06T05:22:37;20.70;;;4.97;;
11453;SDS011;5783;55.174;61.310;2023-04-06T05:25:06;12.50;;;4.30;;
11453;SDS011;5783;55.174;61.310;2023-04-06T05:27:36;15.33;;;4.50;;
11453;SDS011;5783;55.174;61.310;2023-04-06T05:30:05;14.13;;;5.30;;
11453;SDS011;5783;55.174;61.310;2023-04-06T05:32:35;16.60;;;4.80;;
11453;SDS011;5783;55.174;61.310;2023-04-06T05:35:05;17.13;;;5.60;;
11453;SDS011;5783;55.174;61.310;2023-04-06T05:37:34;18.27;;;5.47;;
11453;SDS011;5783;55.174;61.310;2023-04-06T05:40:04;13.00;;;5.00;;
11453;SDS011;5783;55.174;61.310;2023-04-06T05:45:23;10.83;;;4.50;;
11453;SDS011;5783;55.174;61.310;2023-04-06T05:47:52;10.53;;;4.20;;
11453;SDS011;5783;55.174;61.310;2023-04-06T05:50:21;15.17;;;4.80;;
11453;SDS011;5783;55.174;61.310;2023-04-06T05:52:50;16.73;;;5.13;;
11453;SDS011;5783;55.174;61.310;2023-04-06T05:55:19;19.83;;;4.30;;
11453;SDS011;5783;55.174;61.310;2023-04-06T05:57:48;18.17;;;4.27;;
11453;SDS011;5783;55.174;61.310;2023-04-06T06:00:18;18.87;;;4.67;;
11453;SDS011;5783;55.174;61.310;2023-04-06T06:02:47;13.53;;;4.17;;
11453;SDS011;5783;55.174;61.310;2023-04-06T06:05:16;14.80;;;4.80;;
11453;SDS011;5783;55.174;61.310;2023-04-06T06:07:46;15.33;;;5.07;;
11453;SDS011;5783;55.174;61.310;2023-04-06T06:10:15;13.23;;;4.90;;
11453;SDS011;5783;55.174;61.310;2023-04-06T06:12:44;14.40;;;4.53;;
11453;SDS011;5783;55.174;61.310;2023-04-06T06:15:13;10.97;;;4.43;;
11453;SDS011;5783;55.174;61.310;2023-04-06T06:17:42;14.33;;;4.57;;
11453;SDS011;5783;55.174;61.310;2023-04-06T06:20:11;12.67;;;4.83;;
11453;SDS011;5783;55.174;61.310;2023-04-06T06:22:41;9.80;;;4.00;;
11453;SDS011;5783;55.174;61.310;2023-04-06T06:25:10;14.90;;;4.67;;
11453;SDS011;5783;55.174;61.310;2023-04-06T06:27:39;11.10;;;4.10;;
11453;SDS011;5783;55.174;61.310;2023-04-06T06:30:08;11.20;;;4.67;;
11453;SDS011;5783;55.174;61.310;2023-04-06T06:32:38;9.63;;;4.20;;
11453;SDS011;5783;55.174;61.310;2023-04-06T06:35:07;13.33;;;4.57;;
11453;SDS011;5783;55.174;61.310;2023-04-06T06:37:36;12.40;;;4.37;;
11453;SDS011;5783;55.174;61.310;2023-04-06T06:40:06;14.27;;;4.40;;
11453;SDS011;5783;55.174;61.310;2023-04-06T06:42:36;12.27;;;4.17;;
11453;SDS011;5783;55.174;61.310;2023-04-06T06:45:06;14.07;;;4.30;;
11453;SDS011;5783;55.174;61.310;2023-04-06T06:47:36;15.27;;;4.27;;
11453;SDS011;5783;55.174;61.310;2023-04-06T06:50:06;13.90;;;5.23;;
11453;SDS011;5783;55.174;61.310;2023-04-06T06:52:36;13.53;;;4.80;;
11453;SDS011;5783;55.174;61.310;2023-04-06T06:55:05;28.70;;;5.97;;
11453;SDS011;5783;55.174;61.310;2023-04-06T06:57:36;20.63;;;5.07;;
11453;SDS011;5783;55.174;61.310;2023-04-06T07:00:08;15.10;;;5.00;;
11453;SDS011;5783;55.174;61.310;2023-04-06T07:02:39;19.60;;;5.00;;
11453;SDS011;5783;55.174;61.310;2023-04-06T07:05:08;11.87;;;4.60;;
11453;SDS011;5783;55.174;61.310;2023-04-06T07:07:37;9.77;;;4.57;;
11453;SDS011;5783;55.174;61.310;2023-04-06T07:10:07;14.73;;;4.43;;
11453;SDS011;5783;55.174;61.310;2023-04-06T07:12:36;12.17;;;4.83;;
11453;SDS011;5783;55.174;61.310;2023-04-06T07:15:06;14.47;;;5.93;;
11453;SDS011;5783;55.174;61.310;2023-04-06T07:17:35;16.33;;;6.83;;
11453;SDS011;5783;55.174;61.310;2023-04-06T07:20:06;20.30;;;7.20;;
11453;SDS011;5783;55.174;61.310;2023-04-06T07:22:36;19.87;;;9.70;;
11453;SDS011;5783;55.174;61.310;2023-04-06T07:25:07;17.93;;;9.10;;
11453;SDS011;5783;55.174;61.310;2023-04-06T07:27:36;19.93;;;10.17;;
11453;SDS011;5783;55.174;61.310;2023-04-06T07:30:06;21.33;;;9.77;;
11453;SDS011;5783;55.174;61.310;2023-04-06T07:32:36;20.30;;;10.17;;
11453;SDS011;5783;55.174;61.310;2023-04-06T07:35:05;16.70;;;8.93;;
11453;SDS011;5783;55.174;61.310;2023-04-06T07:37:34;23.20;;;12.10;;
11453;SDS011;5783;55.174;61.310;2023-04-06T07:40:04;27.13;;;12.53;;
11453;SDS011;5783;55.174;61.310;2023-04-06T07:42:34;24.03;;;11.07;;
11453;SDS011;5783;55.174;61.310;2023-04-06T07:45:03;24.90;;;11.33;;
11453;SDS011;5783;55.174;61.310;2023-04-06T07:47:33;20.93;;;8.70;;
11453;SDS011;5783;55.174;61.310;2023-04-06T07:50:02;25.47;;;10.37;;
11453;SDS011;5783;55.174;61.310;2023-04-06T07:52:32;24.23;;;10.30;;
11453;SDS011;5783;55.174;61.310;2023-04-06T07:55:01;23.83;;;10.17;;
11453;SDS011;5783;55.174;61.310;2023-04-06T07:57:30;21.33;;;8.63;;
11453;SDS011;5783;55.174;61.310;2023-04-06T07:59:59;26.27;;;9.50;;
11453;SDS011;5783;55.174;61.310;2023-04-06T08:05:19;24.13;;;9.20;;
11453;SDS011;5783;55.174;61.310;2023-04-06T08:07:48;20.27;;;9.00;;
11453;SDS011;5783;55.174;61.310;2023-04-06T08:10:17;25.37;;;8.67;;
11453;SDS011;5783;55.174;61.310;2023-04-06T08:12:46;33.20;;;8.07;;
11453;SDS011;5783;55.174;61.310;2023-04-06T08:15:16;22.50;;;6.53;;
11453;SDS011;5783;55.174;61.310;2023-04-06T08:17:45;16.90;;;5.30;;
11453;SDS011;5783;55.174;61.310;2023-04-06T08:20:14;20.13;;;5.93;;
11453;SDS011;5783;55.174;61.310;2023-04-06T08:22:43;12.17;;;4.67;;
11453;SDS011;5783;55.174;61.310;2023-04-06T08:25:12;11.53;;;4.27;;
11453;SDS011;5783;55.174;61.310;2023-04-06T08:27:41;13.43;;;4.53;;
11453;SDS011;5783;55.174;61.310;2023-04-06T08:30:11;15.17;;;4.30;;
11453;SDS011;5783;55.174;61.310;2023-04-06T08:32:41;20.67;;;5.00;;
11453;SDS011;5783;55.174;61.310;2023-04-06T08:35:11;25.03;;;4.73;;
11453;SDS011;5783;55.174;61.310;2023-04-06T08:37:41;14.87;;;4.90;;
11453;SDS011;5783;55.174;61.310;2023-04-06T08:40:11;18.23;;;4.53;;
11453;SDS011;5783;55.174;61.310;2023-04-06T08:42:44;16.67;;;4.07;;
11453;SDS011;5783;55.174;61.310;2023-04-06T08:45:33;18.57;;;4.20;;
11453;SDS011;5783;55.174;61.310;2023-04-06T08:48:02;18.73;;;5.37;;
11453;SDS011;5783;55.174;61.310;2023-04-06T08:50:33;15.93;;;5.50;;
11453;SDS011;5783;55.174;61.310;2023-04-06T08:53:02;19.67;;;4.57;;
11453;SDS011;5783;55.174;61.310;2023-04-06T08:55:31;18.60;;;4.80;;
11453;SDS011;5783;55.174;61.310;2023-04-06T08:58:02;30.50;;;6.13;;
11453;SDS011;5783;55.174;61.310;2023-04-06T09:00:32;23.93;;;6.17;;
11453;SDS011;5783;55.174;61.310;2023-04-06T09:03:02;32.17;;;6.83;;
11453;SDS011;5783;55.174;61.310;2023-04-06T09:05:33;27.90;;;5.90;;
11453;SDS011;5783;55.174;61.310;2023-04-06T09:08:03;23.43;;;5.70;;
11453;SDS011;5783;55.174;61.310;2023-04-06T09:10:33;33.00;;;6.77;;
11453;SDS011;5783;55.174;61.310;2023-04-06T09:13:03;25.77;;;7.17;;
11453;SDS011;5783;55.174;61.310;2023-04-06T09:15:33;21.00;;;6.77;;
11453;SDS011;5783;55.174;61.310;2023-04-06T09:18:03;22.27;;;6.63;;
11453;SDS011;5783;55.174;61.310;2023-04-06T09:23:05;28.90;;;7.13;;
11453;SDS011;5783;55.174;61.310;2023-04-06T09:25:34;25.47;;;6.90;;
11453;SDS011;5783;55.174;61.310;2023-04-06T09:28:04;17.83;;;5.20;;
11453;SDS011;5783;55.174;61.310;2023-04-06T09:30:33;21.60;;;5.87;;
11453;SDS011;5783;55.174;61.310;2023-04-06T09:33:04;14.93;;;5.23;;
11453;SDS011;5783;55.174;61.310;2023-04-06T09:35:33;21.73;;;5.63;;
11453;SDS011;5783;55.174;61.310;2023-04-06T09:38:10;15.13;;;4.87;;
11453;SDS011;5783;55.174;61.310;2023-04-06T09:40:34;18.67;;;4.50;;
11453;SDS011;5783;55.174;61.310;2023-04-06T09:43:03;13.27;;;4.47;;
11453;SDS011;5783;55.174;61.310;2023-04-06T09:45:33;20.10;;;4.37;;
11453;SDS011;5783;55.174;61.310;2023-04-06T09:48:02;20.80;;;5.07;;
11453;SDS011;5783;55.174;61.310;2023-04-06T09:50:32;30.77;;;5.33;;
11453;SDS011;5783;55.174;61.310;2023-04-06T09:53:03;29.67;;;5.50;;
11453;SDS011;5783;55.174;61.310;2023-04-06T09:55:34;23.07;;;5.33;;
11453;SDS011;5783;55.174;61.310;2023-04-06T10:06:56;12.90;;;4.30;;
11453;SDS011;5783;55.174;61.310;2023-04-06T10:12:15;21.73;;;5.30;;
11453;SDS011;5783;55.174;61.310;2023-04-06T10:14:45;24.57;;;5.97;;
11453;SDS011;5783;55.174;61.310;2023-04-06T10:17:15;26.90;;;5.47;;
11453;SDS011;5783;55.174;61.310;2023-04-06T10:28:36;21.00;;;5.40;;
11453;SDS011;5783;55.174;61.310;2023-04-06T10:31:05;20.40;;;5.20;;
11453;SDS011;5783;55.174;61.310;2023-04-06T10:33:34;22.00;;;5.20;;
11453;SDS011;5783;55.174;61.310;2023-04-06T10:44:56;17.73;;;4.93;;
11453;SDS011;5783;55.174;61.310;2023-04-06T10:47:25;21.47;;;5.37;;
11453;SDS011;5783;55.174;61.310;2023-04-06T10:49:54;22.00;;;5.80;;
11453;SDS011;5783;55.174;61.310;2023-04-06T10:52:23;17.03;;;5.33;;
11453;SDS011;5783;55.174;61.310;2023-04-06T10:54:52;23.57;;;5.50;;
11453;SDS011;5783;55.174;61.310;2023-04-06T11:05:54;21.13;;;4.97;;
11453;SDS011;5783;55.174;61.310;2023-04-06T11:08:43;24.73;;;5.43;;
11453;SDS011;5783;55.174;61.310;2023-04-06T11:11:13;18.13;;;5.67;;
11453;SDS011;5783;55.174;61.310;2023-04-06T11:13:45;18.00;;;4.60;;
11453;SDS011;5783;55.174;61.310;2023-04-06T11:16:17;18.10;;;4.90;;
11453;SDS011;5783;55.174;61.310;2023-04-06T11:24:28;23.27;;;5.10;;
11453;SDS011;5783;55.174;61.310;2023-04-06T11:26:57;21.00;;;5.87;;
11453;SDS011;5783;55.174;61.310;2023-04-06T11:29:30;20.07;;;5.80;;
11453;SDS011;5783;55.174;61.310;2023-04-06T11:32:03;21.73;;;5.63;;
11453;SDS011;5783;55.174;61.310;2023-04-06T11:37:26;15.60;;;5.00;;
11453;SDS011;5783;55.174;61.310;2023-04-06T11:39:56;18.77;;;7.27;;
11453;SDS011;5783;55.174;61.310;2023-04-06T11:42:25;20.37;;;7.07;;
11453;SDS011;5783;55.174;61.310;2023-04-06T11:47:44;20.70;;;8.60;;
11453;SDS011;5783;55.174;61.310;2023-04-06T11:50:35;23.10;;;8.80;;
11453;SDS011;5783;55.174;61.310;2023-04-06T11:53:04;27.37;;;9.00;;
11453;SDS011;5783;55.174;61.310;2023-04-06T11:58:22;43.37;;;13.03;;
11453;SDS011;5783;55.174;61.310;2023-04-06T12:00:52;30.27;;;12.83;;
11453;SDS011;5783;55.174;61.310;2023-04-06T12:03:21;31.47;;;11.93;;
11453;SDS011;5783;55.174;61.310;2023-04-06T12:05:50;35.43;;;12.97;;
11453;SDS011;5783;55.174;61.310;2023-04-06T12:08:20;46.27;;;14.63;;
11453;SDS011;5783;55.174;61.310;2023-04-06T12:10:51;36.33;;;13.50;;
11453;SDS011;5783;55.174;61.310;2023-04-06T12:13:20;36.23;;;14.83;;
11453;SDS011;5783;55.174;61.310;2023-04-06T12:15:49;36.33;;;14.10;;
11453;SDS011;5783;55.174;61.310;2023-04-06T12:18:18;38.17;;;13.33;;
11453;SDS011;5783;55.174;61.310;2023-04-06T12:20:47;33.90;;;12.23;;
11453;SDS011;5783;55.174;61.310;2023-04-06T12:23:16;32.73;;;11.20;;
11453;SDS011;5783;55.174;61.310;2023-04-06T12:25:47;33.27;;;11.27;;
11453;SDS011;5783;55.174;61.310;2023-04-06T12:28:16;32.00;;;11.00;;
11453;SDS011;5783;55.174;61.310;2023-04-06T12:30:47;30.93;;;10.77;;
11453;SDS011;5783;55.174;61.310;2023-04-06T12:33:16;30.33;;;9.30;;
11453;SDS011;5783;55.174;61.310;2023-04-06T12:35:46;26.40;;;8.60;;
11453;SDS011;5783;55.174;61.310;2023-04-06T12:38:16;19.63;;;8.50;;
11453;SDS011;5783;55.174;61.310;2023-04-06T12:40:46;29.23;;;9.27;;
11453;SDS011;5783;55.174;61.310;2023-04-06T12:43:15;35.43;;;9.87;;
11453;SDS011;5783;55.174;61.310;2023-04-06T12:45:45;28.47;;;8.60;;
11453;SDS011;5783;55.174;61.310;2023-04-06T12:48:14;27.17;;;7.83;;
11453;SDS011;5783;55.174;61.310;2023-04-06T12:50:43;29.83;;;7.60;;
11453;SDS011;5783;55.174;61.310;2023-04-06T12:53:13;22.33;;;6.67;;
11453;SDS011;5783;55.174;61.310;2023-04-06T12:55:42;44.93;;;9.30;;
11453;SDS011;5783;55.174;61.310;2023-04-06T12:58:11;35.20;;;8.83;;
11453;SDS011;5783;55.174;61.310;2023-04-06T13:00:41;45.30;;;8.90;;
11453;SDS011;5783;55.174;61.310;2023-04-06T13:03:10;36.67;;;8.27;;
11453;SDS011;5783;55.174;61.310;2023-04-06T13:08:28;28.87;;;7.43;;
11453;SDS011;5783;55.174;61.310;2023-04-06T13:10:58;42.70;;;8.63;;
11453;SDS011;5783;55.174;61.310;2023-04-06T13:13:27;46.73;;;8.37;;
11453;SDS011;5783;55.174;61.310;2023-04-06T13:18:46;36.67;;;7.80;;
11453;SDS011;5783;55.174;61.310;2023-04-06T13:21:16;40.47;;;7.60;;
11453;SDS011;5783;55.174;61.310;2023-04-06T13:23:46;37.83;;;7.60;;
11453;SDS011;5783;55.174;61.310;2023-04-06T13:26:16;39.30;;;8.03;;
11453;SDS011;5783;55.174;61.310;2023-04-06T13:28:45;36.03;;;7.63;;
11453;SDS011;5783;55.174;61.310;2023-04-06T13:31:14;38.27;;;8.63;;
11453;SDS011;5783;55.174;61.310;2023-04-06T13:33:44;39.40;;;10.07;;
11453;SDS011;5783;55.174;61.310;2023-04-06T13:36:13;39.17;;;9.00;;
11453;SDS011;5783;55.174;61.310;2023-04-06T13:38:42;30.40;;;8.03;;
11453;SDS011;5783;55.174;61.310;2023-04-06T13:44:03;30.40;;;8.70;;
11453;SDS011;5783;55.174;61.310;2023-04-06T13:46:32;31.13;;;7.97;;
11453;SDS011;5783;55.174;61.310;2023-04-06T13:49:01;45.37;;;9.50;;
11453;SDS011;5783;55.174;61.310;2023-04-06T13:51:31;41.63;;;9.53;;
11453;SDS011;5783;55.174;61.310;2023-04-06T13:54:00;31.63;;;8.50;;
11453;SDS011;5783;55.174;61.310;2023-04-06T13:56:29;28.73;;;8.03;;
11453;SDS011;5783;55.174;61.310;2023-04-06T14:01:31;39.50;;;8.60;;
11453;SDS011;5783;55.174;61.310;2023-04-06T14:04:00;50.63;;;9.27;;
11453;SDS011;5783;55.174;61.310;2023-04-06T14:06:29;33.27;;;8.90;;
11453;SDS011;5783;55.174;61.310;2023-04-06T14:08:58;35.33;;;9.30;;
11453;SDS011;5783;55.174;61.310;2023-04-06T14:11:28;37.53;;;9.97;;
11453;SDS011;5783;55.174;61.310;2023-04-06T14:13:57;28.90;;;8.60;;
11453;SDS011;5783;55.174;61.310;2023-04-06T14:16:27;24.37;;;7.83;;
11453;SDS011;5783;55.174;61.310;2023-04-06T14:18:57;25.60;;;9.47;;
11453;SDS011;5783;55.174;61.310;2023-04-06T14:21:27;34.23;;;10.40;;
11453;SDS011;5783;55.174;61.310;2023-04-06T14:23:55;24.97;;;9.20;;
11453;SDS011;5783;55.174;61.310;2023-04-06T14:26:24;44.23;;;13.13;;
11453;SDS011;5783;55.174;61.310;2023-04-06T14:28:53;37.63;;;12.43;;
11453;SDS011;5783;55.174;61.310;2023-04-06T14:31:22;41.70;;;13.60;;
11453;SDS011;5783;55.174;61.310;2023-04-06T14:33:52;41.53;;;13.37;;
11453;SDS011;5783;55.174;61.310;2023-04-06T14:36:21;44.00;;;13.40;;
11453;SDS011;5783;55.174;61.310;2023-04-06T14:38:52;38.87;;;12.03;;
11453;SDS011;5783;55.174;61.310;2023-04-06T14:41:22;36.30;;;13.30;;
11453;SDS011;5783;55.174;61.310;2023-04-06T14:43:52;35.33;;;12.50;;
11453;SDS011;5783;55.174;61.310;2023-04-06T14:46:21;35.27;;;13.17;;
11453;SDS011;5783;55.174;61.310;2023-04-06T14:51:41;33.67;;;12.73;;
11453;SDS011;5783;55.174;61.310;2023-04-06T14:54:10;26.57;;;10.83;;
11453;SDS011;5783;55.174;61.310;2023-04-06T14:56:39;34.70;;;11.33;;
11453;SDS011;5783;55.174;61.310;2023-04-06T14:59:08;32.53;;;11.10;;
11453;SDS011;5783;55.174;61.310;2023-04-06T15:01:38;22.53;;;9.80;;
11453;SDS011;5783;55.174;61.310;2023-04-06T15:04:07;27.37;;;15.27;;
11453;SDS011;5783;55.174;61.310;2023-04-06T15:06:36;30.63;;;19.63;;
11453;SDS011;5783;55.174;61.310;2023-04-06T15:09:06;30.00;;;20.10;;
11453;SDS011;5783;55.174;61.310;2023-04-06T15:11:35;27.47;;;19.90;;
11453;SDS011;5783;55.174;61.310;2023-04-06T15:14:05;32.27;;;22.10;;
11453;SDS011;5783;55.174;61.310;2023-04-06T15:16:35;30.20;;;21.63;;
11453;SDS011;5783;55.174;61.310;2023-04-06T15:19:04;33.80;;;23.00;;
11453;SDS011;5783;55.174;61.310;2023-04-06T15:21:34;37.70;;;24.83;;
11453;SDS011;5783;55.174;61.310;2023-04-06T15:24:03;37.80;;;25.73;;
11453;SDS011;5783;55.174;61.310;2023-04-06T15:26:35;33.93;;;24.43;;
11453;SDS011;5783;55.174;61.310;2023-04-06T15:29:04;30.80;;;23.63;;
11453;SDS011;5783;55.174;61.310;2023-04-06T15:31:33;34.07;;;24.83;;
11453;SDS011;5783;55.174;61.310;2023-04-06T15:36:54;33.70;;;25.10;;
11453;SDS011;5783;55.174;61.310;2023-04-06T15:39:25;37.50;;;25.30;;
11453;SDS011;5783;55.174;61.310;2023-04-06T15:41:54;36.00;;;23.73;;
11453;SDS011;5783;55.174;61.310;2023-04-06T15:44:26;34.07;;;22.97;;
11453;SDS011;5783;55.174;61.310;2023-04-06T15:46:55;29.67;;;20.70;;
11453;SDS011;5783;55.174;61.310;2023-04-06T15:49:24;29.00;;;20.47;;
11453;SDS011;5783;55.174;61.310;2023-04-06T15:51:53;26.23;;;19.10;;
11453;SDS011;5783;55.174;61.310;2023-04-06T15:54:22;23.63;;;16.57;;
11453;SDS011;5783;55.174;61.310;2023-04-06T15:56:52;22.50;;;15.90;;
11453;SDS011;5783;55.174;61.310;2023-04-06T15:59:21;20.27;;;14.90;;
11453;SDS011;5783;55.174;61.310;2023-04-06T16:01:50;21.70;;;14.03;;
11453;SDS011;5783;55.174;61.310;2023-04-06T16:04:19;19.60;;;13.93;;
11453;SDS011;5783;55.174;61.310;2023-04-06T16:06:49;17.33;;;12.90;;
11453;SDS011;5783;55.174;61.310;2023-04-06T16:09:18;18.57;;;12.70;;